Time;durP1;ratioP1;P1;durP2;ratioP2;P2;SDS_P1;SDS_P2;PMS_P1;PMS_P2;Temp;Humidity;BMP_temperature;BMP_pressure;BME280_temperature;BME280_humidity;BME280_pressure;Samples;Min_cycle;Max_cycle;Signal;HPM_P1;HPM_P2
2020/12/12 00:00:23;;;;;;;18.50;13.97;;;3.40;99.90;;;;;;5041672;28;20266;-66
2020/12/12 00:02:50;;;;;;;17.47;13.90;;;3.40;99.90;;;;;;5037616;28;20183;-66
2020/12/12 00:05:15;;;;;;;14.40;12.27;;;3.40;99.90;;;;;;5041566;28;20557;-66
2020/12/12 00:07:41;;;;;;;14.03;11.80;;;3.50;99.90;;;;;;5039930;28;20180;-67
2020/12/12 00:10:07;;;;;;;15.70;13.00;;;3.50;99.90;;;;;;5039144;28;20213;-65
2020/12/12 00:12:32;;;;;;;15.83;12.90;;;3.50;99.90;;;;;;5035153;28;20225;-66
2020/12/12 00:14:58;;;;;;;14.97;13.03;;;3.50;99.90;;;;;;5041251;28;20189;-66
2020/12/12 00:17:24;;;;;;;14.70;12.70;;;3.60;99.90;;;;;;5033972;28;20193;-67
2020/12/12 00:19:49;;;;;;;13.17;11.47;;;3.60;99.90;;;;;;5043745;28;20285;-66
2020/12/12 00:22:15;;;;;;;14.57;13.07;;;3.60;99.90;;;;;;5039212;28;20261;-66
2020/12/12 00:24:40;;;;;;;15.23;13.63;;;3.60;99.90;;;;;;5047313;28;20191;-67
2020/12/12 00:27:06;;;;;;;14.20;12.17;;;3.60;99.90;;;;;;5025357;28;20208;-67
2020/12/12 00:29:31;;;;;;;15.17;12.70;;;3.60;99.90;;;;;;5036840;28;20736;-67
2020/12/12 00:31:59;;;;;;;17.93;14.60;;;3.70;99.90;;;;;;5036983;28;20208;-67
2020/12/12 00:34:26;;;;;;;15.50;12.30;;;3.70;99.90;;;;;;5035927;28;20187;-67
2020/12/12 00:36:52;;;;;;;15.40;13.17;;;3.70;99.90;;;;;;5036873;28;20187;-66
2020/12/12 00:39:19;;;;;;;13.60;12.17;;;3.70;99.90;;;;;;5041435;28;20196;-65
2020/12/12 00:41:44;;;;;;;14.07;12.27;;;3.70;99.90;;;;;;5041700;28;20192;-67
2020/12/12 00:44:11;;;;;;;14.63;11.93;;;3.70;99.90;;;;;;5043086;28;20190;-67
2020/12/12 00:46:37;;;;;;;13.90;11.80;;;3.70;99.90;;;;;;5034692;28;20647;-67
2020/12/12 00:49:07;;;;;;;14.23;12.37;;;3.80;99.90;;;;;;5046903;28;20195;-65
2020/12/12 00:51:33;;;;;;;12.53;11.07;;;3.80;99.90;;;;;;5034858;28;20778;-66
2020/12/12 00:53:58;;;;;;;13.27;11.47;;;3.80;99.90;;;;;;5037786;28;20194;-66
2020/12/12 00:56:24;;;;;;;14.07;11.37;;;3.80;99.90;;;;;;5038985;28;20270;-66
2020/12/12 00:58:50;;;;;;;13.97;11.43;;;3.90;99.90;;;;;;5039896;28;20204;-66
2020/12/12 01:01:16;;;;;;;12.40;10.73;;;3.90;99.90;;;;;;5049970;28;20200;-66
2020/12/12 01:03:43;;;;;;;12.73;10.87;;;4.00;99.90;;;;;;5065433;28;20185;-67
2020/12/12 01:06:13;;;;;;;12.40;11.10;;;3.90;99.90;;;;;;5055494;28;20178;-65
2020/12/12 01:08:40;;;;;;;13.40;10.77;;;3.90;99.90;;;;;;5043911;28;20187;-67
2020/12/12 01:11:07;;;;;;;13.30;11.90;;;3.90;99.90;;;;;;5035940;28;20240;-67
2020/12/12 01:13:33;;;;;;;16.73;13.03;;;3.80;99.90;;;;;;5039602;28;20674;-67
2020/12/12 01:16:04;;;;;;;14.03;11.90;;;3.80;99.90;;;;;;5040134;28;20194;-66
2020/12/12 01:18:29;;;;;;;15.13;12.27;;;3.80;99.90;;;;;;5042070;28;20180;-68
2020/12/12 01:20:55;;;;;;;13.20;11.80;;;3.80;99.90;;;;;;5035006;28;20207;-66
2020/12/12 01:23:20;;;;;;;15.53;12.27;;;3.70;99.90;;;;;;5039813;28;20192;-66
2020/12/12 01:25:46;;;;;;;15.07;11.87;;;3.70;99.90;;;;;;5041885;28;20233;-66
2020/12/12 01:28:12;;;;;;;14.87;12.83;;;3.70;99.90;;;;;;5038568;28;20215;-66
2020/12/12 01:30:37;;;;;;;16.67;12.47;;;3.60;99.90;;;;;;5033234;28;20218;-66
2020/12/12 01:33:03;;;;;;;14.13;11.90;;;3.50;99.90;;;;;;5035531;28;20186;-66
2020/12/12 01:35:29;;;;;;;14.30;12.80;;;3.50;99.90;;;;;;5033550;28;20240;-66
2020/12/12 01:37:54;;;;;;;15.90;12.83;;;3.40;99.90;;;;;;5044323;28;20195;-66
2020/12/12 01:40:20;;;;;;;18.40;12.57;;;3.30;99.90;;;;;;5035681;28;20223;-66
2020/12/12 01:42:46;;;;;;;15.20;12.47;;;3.30;99.90;;;;;;5039067;28;20189;-67
2020/12/12 01:45:11;;;;;;;15.20;11.83;;;3.20;99.90;;;;;;5039995;28;20199;-65
2020/12/12 01:47:39;;;;;;;13.77;11.53;;;3.20;99.90;;;;;;5038855;28;20249;-66
2020/12/12 01:50:05;;;;;;;13.00;11.23;;;3.20;99.90;;;;;;5044199;28;20289;-66
2020/12/12 01:52:32;;;;;;;13.37;11.23;;;3.20;99.90;;;;;;5037024;28;20189;-66
2020/12/12 01:54:59;;;;;;;13.43;11.90;;;3.30;99.90;;;;;;5036093;28;20188;-66
2020/12/12 01:57:24;;;;;;;14.50;11.60;;;3.30;99.90;;;;;;5038279;28;20930;-66
2020/12/12 01:59:51;;;;;;;12.43;11.13;;;3.30;99.90;;;;;;5040523;28;20230;-66
2020/12/12 02:02:19;;;;;;;13.77;11.10;;;3.30;99.90;;;;;;5028787;28;20223;-67
2020/12/12 02:04:54;;;;;;;12.57;11.27;;;3.30;99.90;;;;;;5039297;28;20618;-66
2020/12/12 02:07:21;;;;;;;13.87;11.70;;;3.30;99.90;;;;;;5039901;28;20254;-67
2020/12/12 02:09:48;;;;;;;15.00;11.63;;;3.30;99.90;;;;;;5042924;28;20232;-67
2020/12/12 02:12:15;;;;;;;14.13;11.30;;;3.30;99.90;;;;;;5036285;28;20809;-66
2020/12/12 02:14:41;;;;;;;12.50;11.20;;;3.30;99.90;;;;;;5039580;28;20275;-67
2020/12/12 02:17:08;;;;;;;12.77;10.73;;;3.30;99.90;;;;;;5038842;28;20262;-67
2020/12/12 02:19:34;;;;;;;13.23;10.73;;;3.30;99.90;;;;;;5042171;28;20300;-68
2020/12/12 02:22:01;;;;;;;13.67;11.90;;;3.30;99.90;;;;;;5039699;28;20177;-66
2020/12/12 02:24:33;;;;;;;13.87;12.23;;;3.40;99.90;;;;;;5039294;28;20191;-66
2020/12/12 02:27:08;;;;;;;13.93;11.23;;;3.50;99.90;;;;;;5023616;28;20238;-67
2020/12/12 02:29:50;;;;;;;13.47;11.70;;;3.60;99.90;;;;;;5038197;28;20204;-68
2020/12/12 02:32:16;;;;;;;15.50;11.30;;;3.70;99.90;;;;;;5043173;28;20190;-67
2020/12/12 02:34:44;;;;;;;13.97;11.47;;;3.70;99.90;;;;;;5037330;28;20788;-67
2020/12/12 02:37:09;;;;;;;14.17;10.87;;;3.70;99.90;;;;;;5036290;28;20188;-68
2020/12/12 02:39:35;;;;;;;12.30;10.70;;;3.70;99.90;;;;;;5039182;28;20574;-67
2020/12/12 02:42:01;;;;;;;14.03;11.70;;;3.70;99.90;;;;;;5043425;28;20203;-65
2020/12/12 02:44:27;;;;;;;12.90;11.00;;;3.80;99.90;;;;;;5025779;28;20210;-66
2020/12/12 02:46:52;;;;;;;13.90;11.67;;;3.80;99.90;;;;;;5040921;28;20192;-67
2020/12/12 02:49:18;;;;;;;13.33;11.13;;;3.80;99.90;;;;;;5040807;28;20824;-67
2020/12/12 02:51:44;;;;;;;11.50;10.30;;;3.80;99.90;;;;;;5039315;28;20186;-67
2020/12/12 02:54:10;;;;;;;12.87;10.93;;;3.80;99.90;;;;;;5044168;28;20198;-66
2020/12/12 02:56:35;;;;;;;11.87;10.60;;;3.80;99.90;;;;;;5040111;28;20262;-66
2020/12/12 02:59:02;;;;;;;12.30;10.77;;;3.90;99.90;;;;;;5023621;28;20311;-66
2020/12/12 03:01:28;;;;;;;12.87;11.23;;;3.80;99.90;;;;;;5048842;28;20637;-66
2020/12/12 03:03:53;;;;;;;10.97;9.73;;;3.90;99.90;;;;;;5038533;28;20211;-66
2020/12/12 03:06:19;;;;;;;10.47;9.37;;;3.90;99.90;;;;;;5039845;28;20187;-66
2020/12/12 03:08:45;;;;;;;12.53;11.23;;;4.00;99.90;;;;;;5043168;28;20582;-67
2020/12/12 03:11:10;;;;;;;12.37;10.07;;;4.00;99.90;;;;;;5043504;28;20261;-65
2020/12/12 03:13:36;;;;;;;13.20;10.00;;;4.10;99.90;;;;;;5039911;28;20203;-66
2020/12/12 03:16:02;;;;;;;10.93;9.63;;;4.10;99.90;;;;;;5042082;28;20199;-66
2020/12/12 03:18:27;;;;;;;11.63;10.37;;;4.00;99.90;;;;;;5041705;28;20190;-67
2020/12/12 03:20:53;;;;;;;11.23;9.93;;;4.10;99.90;;;;;;5043767;28;20701;-66
2020/12/12 03:23:19;;;;;;;11.17;10.00;;;4.10;99.90;;;;;;5036339;28;20259;-68
2020/12/12 03:25:44;;;;;;;11.80;10.43;;;4.10;99.90;;;;;;5036086;28;20184;-67
2020/12/12 03:28:10;;;;;;;10.30;9.03;;;4.00;99.90;;;;;;5046037;28;20233;-67
2020/12/12 03:30:36;;;;;;;11.07;9.97;;;4.00;99.90;;;;;;5037165;28;20627;-66
2020/12/12 03:33:03;;;;;;;11.33;9.43;;;4.00;99.90;;;;;;5049721;28;20189;-67
2020/12/12 03:35:29;;;;;;;10.30;9.20;;;4.00;99.90;;;;;;5038018;28;20197;-67
2020/12/12 03:37:55;;;;;;;10.37;9.37;;;4.00;99.90;;;;;;5037629;28;20208;-66
2020/12/12 03:40:23;;;;;;;11.87;9.63;;;4.00;99.90;;;;;;5039283;28;20216;-66
2020/12/12 03:42:51;;;;;;;9.13;8.23;;;3.90;99.90;;;;;;5039459;28;20189;-67
2020/12/12 03:45:17;;;;;;;9.73;8.73;;;3.90;99.90;;;;;;5041187;28;20682;-67
2020/12/12 03:47:44;;;;;;;10.13;9.13;;;3.90;99.90;;;;;;5039021;28;20192;-67
2020/12/12 03:50:09;;;;;;;9.70;8.80;;;3.90;99.90;;;;;;5036742;28;20295;-66
2020/12/12 03:52:35;;;;;;;10.57;8.77;;;3.90;99.90;;;;;;5041846;28;20268;-66
2020/12/12 03:55:00;;;;;;;9.17;8.27;;;3.90;99.90;;;;;;5038372;28;20245;-66
2020/12/12 03:57:26;;;;;;;10.77;8.87;;;3.90;99.90;;;;;;5042164;28;20689;-67
2020/12/12 03:59:51;;;;;;;9.33;8.27;;;4.00;99.90;;;;;;5040318;28;20242;-67
2020/12/12 04:02:17;;;;;;;10.07;9.07;;;4.00;99.90;;;;;;5045043;28;20182;-66
2020/12/12 04:04:43;;;;;;;10.17;8.77;;;4.00;99.90;;;;;;5040922;28;20197;-66
2020/12/12 04:07:08;;;;;;;9.90;8.90;;;3.90;99.90;;;;;;5039207;28;20180;-66
2020/12/12 04:09:34;;;;;;;10.47;9.17;;;4.00;99.90;;;;;;5045434;28;20752;-66
2020/12/12 04:11:59;;;;;;;10.20;9.20;;;3.90;99.90;;;;;;5041160;28;20192;-66
2020/12/12 04:14:25;;;;;;;10.17;9.07;;;3.90;99.90;;;;;;5043002;28;20255;-68
2020/12/12 04:16:51;;;;;;;10.43;9.43;;;3.90;99.90;;;;;;5035307;28;20193;-66
2020/12/12 04:19:16;;;;;;;10.83;9.50;;;3.90;99.90;;;;;;5042810;28;20208;-68
2020/12/12 04:21:42;;;;;;;10.37;9.40;;;3.80;99.90;;;;;;5035530;28;20659;-67
2020/12/12 04:24:07;;;;;;;11.27;10.07;;;3.80;99.90;;;;;;5044838;28;20541;-67
2020/12/12 04:26:33;;;;;;;12.63;9.67;;;3.80;99.90;;;;;;5035924;28;20340;-68
2020/12/12 04:28:59;;;;;;;9.70;8.73;;;3.70;99.90;;;;;;5038722;28;20184;-65
2020/12/12 04:31:24;;;;;;;11.63;10.27;;;3.70;99.90;;;;;;5034812;28;20241;-66
2020/12/12 04:33:50;;;;;;;10.57;9.13;;;3.70;99.90;;;;;;5038065;28;20676;-68
2020/12/12 04:36:15;;;;;;;10.17;9.07;;;3.70;99.90;;;;;;5043133;28;20241;-66
2020/12/12 04:38:41;;;;;;;12.00;10.00;;;3.70;99.90;;;;;;5038875;28;20210;-66
2020/12/12 04:41:07;;;;;;;10.70;9.60;;;3.70;99.90;;;;;;5039533;28;20213;-66
2020/12/12 04:43:33;;;;;;;11.90;10.70;;;3.60;99.90;;;;;;5035685;28;20190;-66
2020/12/12 04:45:59;;;;;;;11.23;10.07;;;3.70;99.90;;;;;;5038232;28;20253;-67
2020/12/12 04:48:25;;;;;;;11.10;9.90;;;3.60;99.90;;;;;;5040181;28;20173;-68
2020/12/12 04:50:54;;;;;;;11.97;10.00;;;3.60;99.90;;;;;;5040640;28;20207;-66
2020/12/12 04:53:24;;;;;;;11.13;9.20;;;3.70;99.90;;;;;;5043591;28;20189;-68
2020/12/12 04:55:51;;;;;;;10.47;9.47;;;3.60;99.90;;;;;;5039526;28;20263;-67
2020/12/12 04:58:22;;;;;;;10.60;9.50;;;3.70;99.90;;;;;;5040203;28;20183;-67
2020/12/12 05:00:50;;;;;;;11.83;10.60;;;3.60;99.90;;;;;;5038896;28;20212;-67
2020/12/12 05:03:18;;;;;;;10.83;9.53;;;3.60;99.90;;;;;;5041854;28;20192;-67
2020/12/12 05:05:44;;;;;;;12.03;10.83;;;3.60;99.90;;;;;;5041064;28;20196;-67
2020/12/12 05:08:10;;;;;;;11.57;9.87;;;3.50;99.90;;;;;;5043918;28;20261;-69
2020/12/12 05:10:37;;;;;;;10.00;8.70;;;3.50;99.90;;;;;;5042237;28;20233;-67
2020/12/12 05:13:13;;;;;;;10.30;9.30;;;3.60;99.90;;;;;;5041349;28;20190;-68
2020/12/12 05:15:39;;;;;;;12.00;10.73;;;3.60;99.90;;;;;;5044173;28;20191;-69
2020/12/12 05:18:04;;;;;;;11.97;10.10;;;3.60;99.90;;;;;;5035366;28;20194;-66
2020/12/12 05:20:34;;;;;;;12.10;10.23;;;3.60;99.90;;;;;;5044960;28;20766;-67
2020/12/12 05:23:00;;;;;;;11.67;10.27;;;3.60;99.90;;;;;;5037813;28;20256;-67
2020/12/12 05:25:26;;;;;;;14.67;11.33;;;3.50;99.90;;;;;;5042976;28;20654;-67
2020/12/12 05:27:53;;;;;;;14.60;13.10;;;3.50;99.90;;;;;;5040873;28;20192;-67
2020/12/12 05:30:20;;;;;;;12.43;11.00;;;3.50;99.90;;;;;;5041755;28;20212;-66
2020/12/12 05:32:48;;;;;;;13.47;11.87;;;3.50;99.90;;;;;;5037042;28;20183;-67
2020/12/12 05:35:14;;;;;;;11.87;10.43;;;3.50;99.90;;;;;;5043045;28;20185;-66
2020/12/12 05:37:40;;;;;;;12.57;10.90;;;3.50;99.90;;;;;;5037346;28;20564;-68
2020/12/12 05:40:06;;;;;;;12.60;11.30;;;3.50;99.90;;;;;;5040689;28;20266;-67
2020/12/12 05:42:35;;;;;;;15.73;11.03;;;3.60;99.90;;;;;;5039655;28;20435;-66
2020/12/12 05:45:04;;;;;;;12.77;10.90;;;3.60;99.90;;;;;;5022673;28;20216;-67
2020/12/12 05:47:30;;;;;;;12.37;10.00;;;3.60;99.90;;;;;;5039388;28;20187;-67
2020/12/12 05:49:56;;;;;;;11.40;10.27;;;3.70;99.90;;;;;;5036044;28;20565;-68
2020/12/12 05:52:22;;;;;;;12.90;11.53;;;3.70;99.90;;;;;;5042170;28;20254;-68
2020/12/12 05:54:47;;;;;;;12.07;10.87;;;3.70;99.90;;;;;;5034683;28;20707;-68
2020/12/12 05:57:14;;;;;;;14.03;11.73;;;3.70;99.90;;;;;;5041699;28;20234;-67
2020/12/12 05:59:40;;;;;;;13.10;11.77;;;3.80;99.90;;;;;;5044593;28;20805;-69
2020/12/12 06:02:08;;;;;;;12.37;10.30;;;3.80;99.90;;;;;;5043388;28;20197;-67
2020/12/12 06:04:49;;;;;;;11.17;10.07;;;3.80;99.90;;;;;;5048412;28;20187;-68
2020/12/12 06:07:29;;;;;;;10.67;9.50;;;3.90;99.90;;;;;;5046395;28;20329;-67
2020/12/12 06:10:01;;;;;;;12.93;9.87;;;3.90;99.90;;;;;;5052531;28;20217;-68
2020/12/12 06:12:27;;;;;;;12.03;10.03;;;3.90;99.90;;;;;;5042890;28;20196;-67
2020/12/12 06:14:58;;;;;;;11.07;8.70;;;4.00;99.90;;;;;;5043293;28;20182;-68
2020/12/12 06:17:37;;;;;;;10.67;8.73;;;4.00;99.90;;;;;;5044997;28;20186;-68
2020/12/12 06:20:05;;;;;;;11.13;7.90;;;4.00;99.90;;;;;;5043864;28;20208;-68
2020/12/12 06:22:31;;;;;;;9.27;7.53;;;4.00;99.90;;;;;;5037672;28;20208;-68
2020/12/12 06:25:00;;;;;;;8.63;7.77;;;4.10;99.90;;;;;;5048115;28;20256;-68
2020/12/12 06:27:32;;;;;;;11.30;7.93;;;4.00;99.90;;;;;;5027276;28;20181;-68
2020/12/12 06:29:59;;;;;;;9.10;7.50;;;4.10;99.90;;;;;;5039402;28;20217;-68
2020/12/12 06:32:24;;;;;;;9.50;8.07;;;4.10;99.90;;;;;;5036878;28;20184;-67
2020/12/12 06:34:52;;;;;;;12.10;8.57;;;4.10;99.90;;;;;;5044513;28;21968;-68
2020/12/12 06:37:29;;;;;;;10.73;9.17;;;4.10;99.90;;;;;;5050082;28;20279;-68
2020/12/12 06:39:57;;;;;;;11.13;7.57;;;4.10;99.90;;;;;;5035185;28;20833;-68
2020/12/12 06:42:33;;;;;;;9.47;8.10;;;4.10;99.90;;;;;;5038033;28;20550;-67
2020/12/12 06:45:01;;;;;;;9.80;7.30;;;4.10;99.90;;;;;;5039555;28;20185;-68
2020/12/12 06:47:38;;;;;;;12.47;8.47;;;4.10;99.90;;;;;;5021353;28;20919;-68
2020/12/12 06:50:06;;;;;;;8.93;7.50;;;4.20;99.90;;;;;;5034236;28;20211;-69
2020/12/12 06:52:31;;;;;;;8.10;7.30;;;4.20;99.90;;;;;;5041306;28;20200;-68
2020/12/12 06:55:04;;;;;;;9.40;7.07;;;4.20;99.90;;;;;;5048891;28;20248;-69
2020/12/12 06:57:34;;;;;;;7.00;6.30;;;4.20;99.90;;;;;;5045394;28;20196;-67
2020/12/12 06:59:59;;;;;;;7.33;6.60;;;4.20;99.90;;;;;;5045468;28;20590;-68
2020/12/12 07:02:25;;;;;;;7.07;6.27;;;4.20;99.90;;;;;;5038395;28;20655;-68
2020/12/12 07:04:50;;;;;;;7.77;6.97;;;4.20;99.90;;;;;;5044985;28;20243;-68
2020/12/12 07:07:16;;;;;;;7.00;6.30;;;4.20;99.90;;;;;;5023959;28;20186;-68
2020/12/12 07:09:43;;;;;;;9.10;7.50;;;4.20;99.90;;;;;;5039277;28;20226;-68
2020/12/12 07:12:10;;;;;;;6.73;6.07;;;4.20;99.90;;;;;;5038858;28;20616;-68
2020/12/12 07:14:37;;;;;;;6.90;6.20;;;4.30;99.90;;;;;;5033068;28;20213;-69
2020/12/12 07:17:04;;;;;;;7.13;6.43;;;4.30;99.90;;;;;;5043062;28;20244;-67
2020/12/12 07:19:38;;;;;;;7.60;6.00;;;4.30;99.90;;;;;;5039608;28;20589;-67
2020/12/12 07:22:09;;;;;;;8.33;6.10;;;4.30;99.90;;;;;;5040819;28;20192;-67
2020/12/12 07:24:35;;;;;;;6.40;5.80;;;4.30;99.90;;;;;;5036810;28;20246;-68
2020/12/12 07:27:03;;;;;;;10.07;7.97;;;4.40;99.90;;;;;;5044315;28;20957;-68
2020/12/12 07:29:29;;;;;;;8.13;6.13;;;4.40;99.90;;;;;;5046852;28;20209;-68
2020/12/12 07:31:55;;;;;;;6.97;6.27;;;4.50;99.90;;;;;;5039888;28;20191;-70
2020/12/12 07:34:22;;;;;;;7.83;7.17;;;4.40;99.90;;;;;;5036279;28;20677;-68
2020/12/12 07:36:57;;;;;;;7.33;6.23;;;4.50;99.90;;;;;;5037947;28;20190;-68
2020/12/12 07:39:35;;;;;;;7.53;6.37;;;4.50;99.90;;;;;;5036436;28;20242;-68
2020/12/12 07:42:02;;;;;;;6.70;6.10;;;4.50;99.90;;;;;;5039961;28;20554;-68
2020/12/12 07:44:31;;;;;;;8.10;6.83;;;4.60;99.90;;;;;;5037885;28;20803;-68
2020/12/12 07:47:08;;;;;;;6.50;5.90;;;4.60;99.90;;;;;;5038244;28;20184;-67
2020/12/12 07:49:35;;;;;;;8.00;6.90;;;4.60;99.90;;;;;;5043529;28;20681;-68
2020/12/12 07:52:06;;;;;;;8.90;7.53;;;4.60;99.90;;;;;;5044847;28;20228;-67
2020/12/12 07:57:43;;;;;;;6.73;6.13;;;4.60;99.90;;;;;;4966385;28;20229;-68
2020/12/12 08:00:11;;;;;;;7.17;6.47;;;4.60;99.90;;;;;;4965431;28;20214;-69
2020/12/12 08:02:38;;;;;;;7.27;6.57;;;4.60;99.90;;;;;;4960263;28;20668;-69
2020/12/12 08:05:05;;;;;;;7.10;6.50;;;4.60;99.90;;;;;;4960039;28;20240;-68
2020/12/12 08:07:32;;;;;;;7.77;6.83;;;4.70;99.90;;;;;;4962082;28;20191;-70
2020/12/12 08:09:58;;;;;;;7.63;6.87;;;4.70;99.90;;;;;;4966230;28;20217;-66
2020/12/12 08:12:29;;;;;;;7.73;7.00;;;4.80;99.90;;;;;;4961471;28;20197;-67
2020/12/12 08:14:58;;;;;;;6.63;5.97;;;4.80;99.90;;;;;;4960784;28;20211;-67
2020/12/12 08:17:33;;;;;;;7.77;7.07;;;4.80;99.90;;;;;;4962409;28;20196;-67
2020/12/12 08:20:00;;;;;;;10.13;7.20;;;4.90;99.90;;;;;;4968389;28;20231;-69
2020/12/12 08:22:27;;;;;;;7.60;6.93;;;4.90;99.90;;;;;;4962411;28;20202;-67
2020/12/12 08:24:53;;;;;;;7.80;7.00;;;4.90;99.90;;;;;;4958529;28;20212;-69
2020/12/12 08:27:37;;;;;;;8.67;6.77;;;4.90;99.90;;;;;;4963867;28;20223;-67
2020/12/12 08:30:06;;;;;;;7.37;6.57;;;4.90;99.90;;;;;;4965506;28;20226;-70
2020/12/12 08:32:43;;;;;;;8.77;6.90;;;5.00;99.90;;;;;;4965003;28;20188;-67
2020/12/12 08:35:19;;;;;;;9.03;7.53;;;5.00;99.90;;;;;;5037391;28;20201;-67
2020/12/12 08:38:04;;;;;;;8.53;6.77;;;5.00;99.90;;;;;;5023275;28;20194;-67
2020/12/12 08:40:49;;;;;;;7.07;6.47;;;5.00;99.90;;;;;;5042326;28;20295;-69
2020/12/12 08:43:16;;;;;;;7.77;6.97;;;5.00;99.90;;;;;;5039427;28;20174;-68
2020/12/12 08:45:43;;;;;;;7.63;6.83;;;5.10;99.90;;;;;;5043563;28;20190;-68
2020/12/12 08:48:10;;;;;;;7.30;6.60;;;5.10;99.90;;;;;;5042001;28;20178;-66
2020/12/12 08:50:53;;;;;;;8.63;7.00;;;5.10;99.90;;;;;;5029263;28;20198;-68
2020/12/12 08:53:42;;;;;;;9.33;6.57;;;5.20;99.90;;;;;;5044815;28;20204;-68
2020/12/12 08:56:13;;;;;;;7.53;6.67;;;5.30;99.90;;;;;;5026837;28;20191;-68
2020/12/12 08:58:43;;;;;;;6.73;6.10;;;5.40;99.90;;;;;;5036334;28;20241;-68
2020/12/12 09:01:08;;;;;;;7.20;6.50;;;5.40;99.90;;;;;;5045314;28;20197;-68
2020/12/12 09:03:34;;;;;;;7.63;6.80;;;5.40;99.90;;;;;;5036850;28;20199;-68
2020/12/12 09:06:06;;;;;;;10.87;7.33;;;5.40;99.90;;;;;;5037389;28;20197;-68
2020/12/12 09:08:31;;;;;;;8.30;5.37;;;5.50;99.90;;;;;;5036944;28;20278;-67
2020/12/12 09:11:13;;;;;;;7.30;5.57;;;5.50;99.90;;;;;;5039226;28;20231;-68
2020/12/12 09:13:38;;;;;;;6.83;5.90;;;5.40;99.90;;;;;;5043233;28;20188;-67
2020/12/12 09:16:07;;;;;;;6.00;4.77;;;5.50;99.90;;;;;;5043323;28;20194;-68
2020/12/12 09:18:45;;;;;;;8.70;4.83;;;5.50;99.90;;;;;;5024637;28;20213;-68
2020/12/12 09:21:11;;;;;;;7.17;5.27;;;5.60;99.90;;;;;;5034226;28;20221;-68
2020/12/12 09:23:37;;;;;;;5.53;5.03;;;5.60;99.90;;;;;;5042564;28;20181;-68
2020/12/12 09:26:03;;;;;;;4.47;4.07;;;5.60;99.90;;;;;;5046999;28;20781;-68
2020/12/12 09:28:29;;;;;;;4.63;4.20;;;5.70;99.90;;;;;;5044060;28;20661;-68
2020/12/12 09:30:55;;;;;;;5.60;4.70;;;5.80;99.90;;;;;;5034836;28;20222;-67
2020/12/12 09:33:20;;;;;;;4.80;4.40;;;5.80;99.90;;;;;;5036868;28;20243;-67
2020/12/12 09:35:46;;;;;;;6.03;4.77;;;5.90;99.90;;;;;;5039535;28;20262;-68
2020/12/12 09:38:11;;;;;;;5.50;4.50;;;5.90;99.90;;;;;;5044579;28;20185;-68
2020/12/12 09:40:37;;;;;;;5.07;4.57;;;6.00;99.90;;;;;;5043840;28;20572;-70
2020/12/12 09:43:02;;;;;;;4.77;4.30;;;6.00;99.90;;;;;;5045460;28;20188;-68
2020/12/12 09:45:28;;;;;;;6.20;4.93;;;6.00;99.90;;;;;;5046027;28;20723;-68
2020/12/12 09:47:54;;;;;;;5.17;4.63;;;5.90;99.90;;;;;;5045307;28;20190;-70
2020/12/12 09:50:19;;;;;;;5.57;4.90;;;5.90;99.90;;;;;;5046566;28;20294;-68
2020/12/12 09:52:45;;;;;;;5.73;5.13;;;5.90;99.90;;;;;;5049129;28;20193;-68
2020/12/12 09:55:10;;;;;;;5.20;4.80;;;5.90;99.90;;;;;;5046194;28;20634;-68
2020/12/12 09:57:36;;;;;;;5.43;4.87;;;6.00;99.90;;;;;;5041890;28;20253;-69
2020/12/12 10:00:03;;;;;;;5.13;4.63;;;6.00;99.90;;;;;;5047237;28;20908;-67
2020/12/12 10:02:28;;;;;;;6.37;4.70;;;6.00;99.90;;;;;;5041435;28;20974;-69
2020/12/12 10:04:54;;;;;;;6.97;4.83;;;6.10;99.90;;;;;;5022317;28;20189;-68
2020/12/12 10:07:19;;;;;;;5.53;4.87;;;6.20;99.90;;;;;;5042710;28;20616;-69
2020/12/12 10:09:45;;;;;;;5.10;4.30;;;6.10;99.90;;;;;;5045571;28;20215;-69
2020/12/12 10:12:11;;;;;;;5.33;4.20;;;6.20;99.90;;;;;;5040196;28;20202;-68
2020/12/12 10:14:36;;;;;;;4.80;4.10;;;6.20;99.90;;;;;;5042033;28;20192;-68
2020/12/12 10:17:02;;;;;;;4.73;4.20;;;6.30;99.90;;;;;;5044683;28;20248;-68
2020/12/12 10:19:27;;;;;;;4.23;3.57;;;6.30;99.90;;;;;;5046255;28;20238;-69
2020/12/12 10:21:53;;;;;;;5.20;4.27;;;6.40;99.80;;;;;;5044109;28;20550;-68
2020/12/12 10:24:19;;;;;;;4.00;3.70;;;6.30;99.90;;;;;;5047217;28;20548;-68
2020/12/12 10:26:47;;;;;;;4.63;4.23;;;6.30;99.90;;;;;;5050517;28;20213;-68
2020/12/12 10:29:13;;;;;;;6.07;4.67;;;6.30;99.90;;;;;;5039677;28;20681;-69
2020/12/12 10:31:38;;;;;;;6.50;4.23;;;6.30;99.90;;;;;;5048455;28;20183;-68
2020/12/12 10:34:04;;;;;;;5.27;4.77;;;6.20;99.90;;;;;;5049208;28;20250;-68
2020/12/12 10:36:30;;;;;;;5.80;5.10;;;6.10;99.90;;;;;;5039725;28;20182;-68
2020/12/12 10:38:55;;;;;;;5.27;4.77;;;6.10;99.90;;;;;;5038172;28;20238;-68
2020/12/12 10:41:22;;;;;;;6.43;4.40;;;6.20;99.90;;;;;;5043375;28;20216;-68
2020/12/12 10:43:49;;;;;;;6.40;5.63;;;6.20;99.90;;;;;;5052376;28;20175;-68
2020/12/12 10:46:14;;;;;;;6.27;5.10;;;6.20;99.90;;;;;;5049367;28;20634;-70
2020/12/12 10:48:40;;;;;;;4.80;4.40;;;6.20;99.90;;;;;;5051731;28;20248;-70
2020/12/12 10:51:05;;;;;;;4.70;4.30;;;6.20;99.90;;;;;;5042647;28;20205;-70
2020/12/12 10:53:31;;;;;;;3.83;3.53;;;6.30;99.90;;;;;;5043080;28;20553;-70
2020/12/12 10:55:57;;;;;;;4.97;3.97;;;6.20;99.90;;;;;;5042447;28;20175;-69
2020/12/12 10:58:22;;;;;;;3.93;3.63;;;6.30;99.90;;;;;;5038372;28;20668;-70
2020/12/12 11:00:50;;;;;;;4.40;4.00;;;6.30;99.90;;;;;;5044287;28;20225;-71
2020/12/12 11:03:16;;;;;;;6.07;3.60;;;6.30;99.90;;;;;;5037809;28;20195;-69
2020/12/12 11:05:42;;;;;;;3.83;3.53;;;6.40;99.90;;;;;;5042069;28;20654;-69
2020/12/12 11:08:07;;;;;;;4.00;3.70;;;6.40;99.70;;;;;;5041703;28;20765;-70
2020/12/12 11:10:33;;;;;;;3.97;3.67;;;6.50;99.60;;;;;;5036404;28;20218;-70
2020/12/12 11:12:59;;;;;;;4.47;4.07;;;6.50;99.80;;;;;;5044413;28;21043;-71
2020/12/12 11:15:24;;;;;;;4.13;3.50;;;6.50;99.70;;;;;;5045401;28;20670;-70
2020/12/12 11:17:50;;;;;;;4.30;3.90;;;6.50;99.90;;;;;;5061942;28;20185;-70
2020/12/12 11:20:16;;;;;;;4.27;3.67;;;6.50;99.90;;;;;;5053771;28;20214;-71
2020/12/12 11:22:42;;;;;;;3.80;3.50;;;6.50;99.90;;;;;;5062437;28;20185;-69
2020/12/12 11:25:09;;;;;;;3.30;3.10;;;6.40;99.90;;;;;;5048187;28;20258;-69
2020/12/12 11:27:35;;;;;;;4.30;3.90;;;6.50;99.90;;;;;;5043498;28;20245;-70
2020/12/12 11:30:04;;;;;;;5.57;4.03;;;6.50;99.90;;;;;;5049960;28;20314;-70
2020/12/12 11:32:29;;;;;;;4.30;3.87;;;6.50;99.90;;;;;;5041866;28;20358;-69
2020/12/12 11:35:05;;;;;;;3.80;3.30;;;6.50;99.90;;;;;;5049325;28;20260;-69
2020/12/12 11:47:35;;;;;;;4.23;3.90;;;6.70;99.90;;;;;;5039631;28;20180;-70
2020/12/12 11:50:01;;;;;;;3.60;3.30;;;6.80;99.90;;;;;;5044883;28;20222;-71
2020/12/12 11:52:26;;;;;;;3.50;3.27;;;6.80;99.70;;;;;;5046895;28;20313;-70
2020/12/12 11:54:52;;;;;;;3.60;3.30;;;6.90;99.80;;;;;;5041464;28;20245;-70
2020/12/12 11:57:18;;;;;;;3.93;3.53;;;6.90;99.80;;;;;;5044957;28;20782;-71
2020/12/12 11:59:44;;;;;;;4.87;3.70;;;6.90;99.90;;;;;;5044514;28;20223;-69
2020/12/12 12:02:10;;;;;;;4.27;3.87;;;6.90;99.90;;;;;;5047490;28;20202;-69
2020/12/12 12:04:36;;;;;;;4.20;3.90;;;6.90;99.90;;;;;;5039871;28;20207;-69
2020/12/12 12:07:02;;;;;;;3.80;3.50;;;7.00;99.90;;;;;;5041385;28;20658;-69
2020/12/12 12:09:43;;;;;;;4.90;3.40;;;6.90;99.90;;;;;;5046630;28;20256;-68
2020/12/12 12:12:09;;;;;;;4.23;3.47;;;7.00;99.90;;;;;;5041455;28;20180;-69
2020/12/12 12:14:35;;;;;;;3.80;3.50;;;7.10;99.90;;;;;;5031760;28;20180;-69
2020/12/12 12:17:00;;;;;;;3.63;3.33;;;7.30;99.90;;;;;;5040880;28;20176;-68
2020/12/12 12:19:26;;;;;;;3.83;3.53;;;7.40;99.60;;;;;;5041671;28;20207;-70
2020/12/12 12:21:52;;;;;;;3.40;3.10;;;7.60;99.20;;;;;;5041066;28;20237;-69
2020/12/12 12:24:19;;;;;;;3.57;3.27;;;7.90;98.30;;;;;;5044548;28;20208;-69
2020/12/12 12:26:48;;;;;;;3.60;3.30;;;8.00;97.70;;;;;;5049835;28;20180;-69
2020/12/12 12:29:14;;;;;;;3.50;3.20;;;8.00;97.40;;;;;;5042660;28;20210;-69
2020/12/12 12:31:44;;;;;;;3.40;3.20;;;8.10;97.40;;;;;;5041228;28;20186;-69
2020/12/12 12:34:11;;;;;;;3.97;3.53;;;8.20;97.30;;;;;;5036781;28;21629;-69
2020/12/12 12:36:38;;;;;;;3.77;3.47;;;8.20;97.20;;;;;;5036638;28;20179;-69
2020/12/12 12:39:06;;;;;;;4.33;2.57;;;8.40;96.60;;;;;;5042396;28;20620;-69
2020/12/12 12:41:32;;;;;;;2.97;2.77;;;8.50;96.30;;;;;;5029851;28;20222;-69
2020/12/12 12:44:01;;;;;;;2.40;2.30;;;8.50;96.30;;;;;;5040676;28;20183;-69
2020/12/12 12:46:35;;;;;;;3.50;3.20;;;8.40;96.10;;;;;;5027246;28;20176;-69
2020/12/12 12:49:01;;;;;;;3.80;3.10;;;8.30;96.90;;;;;;5039874;28;20820;-68
2020/12/12 12:51:27;;;;;;;3.63;3.33;;;8.10;97.60;;;;;;5042025;28;20202;-69
2020/12/12 12:53:53;;;;;;;4.40;3.27;;;8.00;98.20;;;;;;5039094;28;20552;-69
2020/12/12 12:56:26;;;;;;;2.83;2.50;;;8.10;98.00;;;;;;5039386;28;20229;-69
2020/12/12 12:58:53;;;;;;;3.27;2.63;;;8.00;97.60;;;;;;5038823;28;20760;-69
2020/12/12 13:01:20;;;;;;;2.87;2.67;;;7.90;98.30;;;;;;5037330;28;20230;-71